Time;durP1;ratioP1;P1;durP2;ratioP2;P2;SDS_P1;SDS_P2;PMS_P1;PMS_P2;Temp;Humidity;BMP_temperature;BMP_pressure;BME280_temperature;BME280_humidity;BME280_pressure;Samples;Min_cycle;Max_cycle;Signal;HPM_P1;HPM_P2
2022/03/10 00:01:22;;;;;;;;;;;;;;;;;;6215630;22;20418;-89
2022/03/10 00:03:58;;;;;;;;;;;;;;;;;;6216247;22;19939;-89
2022/03/10 00:06:27;;;;;;;;;;;;;;;;;;6240802;22;19915;-88
2022/03/10 00:08:56;;;;;;;;;;;;;;;;;;6216817;22;19973;-89
2022/03/10 00:11:22;;;;;;;;;;;;;;;;;;6240580;22;20240;-89
2022/03/10 00:13:48;;;;;;;;;;;;;;;;;;6215227;22;19946;-89
2022/03/10 00:16:14;;;;;;;;;;;;;;;;;;6217509;22;19959;-88
2022/03/10 00:18:40;;;;;;;;;;;;;;;;;;6243109;22;20393;-88
2022/03/10 00:21:09;;;;;;;;;;;;;;;;;;6218129;22;19919;-88
2022/03/10 00:23:38;;;;;;;;;;;;;;;;;;6219590;22;19976;-88
2022/03/10 00:26:06;;;;;;;;;;;;;;;;;;6218420;22;19919;-88
2022/03/10 00:28:33;;;;;;;;;;;;;;;;;;6242913;22;19923;-87
2022/03/10 00:30:59;;;;;;;;;;;;;;;;;;6242983;22;20237;-87
2022/03/10 00:33:25;;;;;;;;;;;;;;;;;;6242856;22;19959;-88
2022/03/10 00:35:51;;;;;;;;;;;;;;;;;;6216273;22;19930;-88
2022/03/10 00:38:17;;;;;;;;;;;;;;;;;;6240194;22;19919;-89
2022/03/10 00:40:43;;;;;;;;;;;;;;;;;;6217279;22;19990;-87
2022/03/10 00:43:09;;;;;;;;;;;;;;;;;;6240517;22;20030;-88
2022/03/10 00:45:35;;;;;;;;;;;;;;;;;;6215291;22;19950;-88
2022/03/10 00:48:01;;;;;;;;;;;;;;;;;;6215214;22;19922;-88
2022/03/10 00:50:27;;;;;;;;;;;;;;;;;;6241607;22;20261;-89
2022/03/10 00:52:53;;;;;;;;;;;;;;;;;;6216972;22;19926;-88
2022/03/10 00:55:19;;;;;;;;;;;;;;;;;;6217236;22;19962;-88
2022/03/10 00:57:48;;;;;;;;;;;;;;;;;;6217718;22;19922;-89
2022/03/10 01:00:25;;;;;;;;;;;;;;;;;;6242958;22;19972;-89
2022/03/10 01:02:54;;;;;;;;;;;;;;;;;;6217546;22;19964;-88
2022/03/10 01:05:20;;;;;;;;;;;;;;;;;;6242038;22;19930;-87
2022/03/10 01:07:46;;;;;;;;;;;;;;;;;;6217367;22;19919;-88
2022/03/10 01:10:15;;;;;;;;;;;;;;;;;;6217246;22;19915;-88
2022/03/10 01:12:42;;;;;;;;;;;;;;;;;;6243113;22;19915;-88
2022/03/10 01:15:08;;;;;;;;;;;;;;;;;;6218340;22;19925;-88
2022/03/10 01:17:34;;;;;;;;;;;;;;;;;;6246236;22;19922;-88
2022/03/10 01:20:02;;;;;;;;;;;;;;;;;;6220070;22;20351;-88
2022/03/10 01:22:28;;;;;;;;;;;;;;;;;;6220868;22;19919;-88
2022/03/10 01:24:54;;;;;;;;;;;;;;;;;;6246299;22;19965;-88
2022/03/10 01:27:20;;;;;;;;;;;;;;;;;;6244459;22;19922;-88
2022/03/10 01:29:46;;;;;;;;;;;;;;;;;;6244207;22;19985;-88
2022/03/10 01:32:15;;;;;;;;;;;;;;;;;;6218093;22;20287;-88
2022/03/10 01:34:41;;;;;;;;;;;;;;;;;;6242118;22;19942;-88
2022/03/10 01:37:07;;;;;;;;;;;;;;;;;;6240581;22;20336;-87
2022/03/10 01:39:36;;;;;;;;;;;;;;;;;;6215829;22;19961;-88
2022/03/10 01:42:06;;;;;;;;;;;;;;;;;;6215340;22;19919;-89
2022/03/10 01:44:32;;;;;;;;;;;;;;;;;;6215283;22;19942;-88
2022/03/10 01:46:58;;;;;;;;;;;;;;;;;;6215580;22;20217;-88
2022/03/10 01:49:24;;;;;;;;;;;;;;;;;;6214873;22;19994;-88
2022/03/10 01:51:53;;;;;;;;;;;;;;;;;;6214784;22;19919;-88
2022/03/10 01:54:22;;;;;;;;;;;;;;;;;;6216887;22;19919;-89
2022/03/10 01:56:48;;;;;;;;;;;;;;;;;;6215136;22;19930;-88
2022/03/10 01:59:17;;;;;;;;;;;;;;;;;;6215589;22;19920;-88
2022/03/10 02:01:43;;;;;;;;;;;;;;;;;;6240995;22;19930;-89
2022/03/10 02:04:09;;;;;;;;;;;;;;;;;;6215377;22;19969;-88
2022/03/10 02:06:35;;;;;;;;;;;;;;;;;;6215292;22;20646;-87
2022/03/10 02:11:46;;;;;;;;;;;;;;;;;;6240483;22;20321;-88
2022/03/10 02:19:45;;;;;;;;;;;;;;;;;;6241117;22;19926;-87
2022/03/10 02:22:11;;;;;;;;;;;;;;;;;;6215402;22;19919;-88
2022/03/10 02:24:37;;;;;;;;;;;;;;;;;;6215084;22;20010;-87
2022/03/10 02:27:07;;;;;;;;;;;;;;;;;;6215851;22;19926;-87
2022/03/10 02:29:33;;;;;;;;;;;;;;;;;;6215969;22;20303;-88
2022/03/10 02:32:01;;;;;;;;;;;;;;;;;;6239312;22;19920;-88
2022/03/10 02:34:27;;;;;;;;;;;;;;;;;;6214879;22;19919;-88
2022/03/10 02:36:53;;;;;;;;;;;;;;;;;;6239687;22;20500;-88
2022/03/10 02:39:26;;;;;;;;;;;;;;;;;;6215003;22;19931;-88
2022/03/10 02:41:55;;;;;;;;;;;;;;;;;;6242381;22;19945;-88
2022/03/10 02:44:24;;;;;;;;;;;;;;;;;;6214900;22;19919;-89
2022/03/10 02:46:51;;;;;;;;;;;;;;;;;;6239546;22;19919;-87
2022/03/10 02:49:38;;;;;;;;;;;;;;;;;;6239744;22;19919;-88
2022/03/10 02:52:03;;;;;;;;;;;;;;;;;;6238313;22;19919;-88
2022/03/10 02:54:29;;;;;;;;;;;;;;;;;;6214419;22;20343;-88
2022/03/10 02:56:55;;;;;;;;;;;;;;;;;;6214577;22;19930;-89
2022/03/10 02:59:21;;;;;;;;;;;;;;;;;;6214430;22;19926;-88
2022/03/10 03:01:50;;;;;;;;;;;;;;;;;;6214908;22;19950;-88
2022/03/10 03:04:16;;;;;;;;;;;;;;;;;;6241091;22;20290;-87
2022/03/10 03:06:42;;;;;;;;;;;;;;;;;;6217566;22;19961;-88
2022/03/10 03:09:08;;;;;;;;;;;;;;;;;;6242455;22;19946;-87
2022/03/10 03:11:34;;;;;;;;;;;;;;;;;;6217284;22;20221;-87
2022/03/10 03:14:01;;;;;;;;;;;;;;;;;;6217896;22;19929;-87
2022/03/10 03:16:27;;;;;;;;;;;;;;;;;;6218885;22;20302;-87
2022/03/10 03:18:56;;;;;;;;;;;;;;;;;;6219604;22;19933;-87
2022/03/10 03:21:23;;;;;;;;;;;;;;;;;;6219439;22;19954;-87
2022/03/10 03:23:49;;;;;;;;;;;;;;;;;;6219324;22;20352;-86
2022/03/10 03:26:15;;;;;;;;;;;;;;;;;;6218946;22;19926;-88
2022/03/10 03:28:44;;;;;;;;;;;;;;;;;;6217657;22;19941;-87
2022/03/10 03:31:10;;;;;;;;;;;;;;;;;;6216453;22;19927;-88
2022/03/10 03:33:38;;;;;;;;;;;;;;;;;;6241649;22;19925;-88
2022/03/10 03:36:10;;;;;;;;;;;;;;;;;;6216842;22;20454;-88
2022/03/10 03:38:36;;;;;;;;;;;;;;;;;;6216141;22;19919;-88
2022/03/10 03:41:02;;;;;;;;;;;;;;;;;;6217022;22;19942;-88
2022/03/10 03:43:28;;;;;;;;;;;;;;;;;;6218136;22;20634;-88
2022/03/10 03:45:57;;;;;;;;;;;;;;;;;;6217657;22;19923;-88
2022/03/10 03:48:23;;;;;;;;;;;;;;;;;;6240811;22;19944;-88
2022/03/10 03:50:49;;;;;;;;;;;;;;;;;;6215156;22;19934;-88
2022/03/10 03:53:18;;;;;;;;;;;;;;;;;;6214893;22;20323;-88
2022/03/10 03:55:44;;;;;;;;;;;;;;;;;;6216520;22;19920;-88
2022/03/10 03:58:15;;;;;;;;;;;;;;;;;;6216212;22;19920;-88
2022/03/10 04:00:42;;;;;;;;;;;;;;;;;;6215868;22;20279;-88
2022/03/10 04:03:10;;;;;;;;;;;;;;;;;;6216382;22;20302;-88
2022/03/10 04:05:36;;;;;;;;;;;;;;;;;;6241134;22;19919;-88
2022/03/10 04:08:05;;;;;;;;;;;;;;;;;;6218035;22;19941;-88
2022/03/10 04:10:32;;;;;;;;;;;;;;;;;;6218212;22;19941;-87
2022/03/10 04:12:57;;;;;;;;;;;;;;;;;;6243761;22;19916;-89
2022/03/10 04:15:30;;;;;;;;;;;;;;;;;;6217304;22;19950;-89
2022/03/10 04:17:56;;;;;;;;;;;;;;;;;;6217606;22;20318;-88
2022/03/10 04:20:22;;;;;;;;;;;;;;;;;;6243152;22;19919;-88
2022/03/10 04:22:49;;;;;;;;;;;;;;;;;;6218289;22;20393;-88
2022/03/10 04:25:15;;;;;;;;;;;;;;;;;;6242779;22;20004;-88
2022/03/10 04:27:46;;;;;;;;;;;;;;;;;;6218581;22;19919;-88
2022/03/10 04:30:13;;;;;;;;;;;;;;;;;;6217410;22;19923;-88
2022/03/10 04:32:45;;;;;;;;;;;;;;;;;;6219485;22;19943;-88
2022/03/10 04:35:13;;;;;;;;;;;;;;;;;;6243380;22;19919;-88
2022/03/10 04:37:42;;;;;;;;;;;;;;;;;;6242636;22;19919;-87
2022/03/10 04:40:08;;;;;;;;;;;;;;;;;;6219016;22;20329;-87
2022/03/10 04:42:43;;;;;;;;;;;;;;;;;;6220733;22;20311;-88
2022/03/10 04:45:09;;;;;;;;;;;;;;;;;;6220199;22;19949;-88
2022/03/10 04:47:35;;;;;;;;;;;;;;;;;;6221499;22;20316;-87
2022/03/10 04:50:01;;;;;;;;;;;;;;;;;;6245609;22;19981;-88
2022/03/10 04:52:27;;;;;;;;;;;;;;;;;;6245351;22;19923;-88
2022/03/10 04:54:56;;;;;;;;;;;;;;;;;;6243995;22;20020;-88
2022/03/10 04:57:22;;;;;;;;;;;;;;;;;;6217508;22;19927;-89
2022/03/10 04:59:58;;;;;;;;;;;;;;;;;;6244718;22;19920;-88
2022/03/10 05:02:24;;;;;;;;;;;;;;;;;;6216128;22;19919;-88
2022/03/10 05:04:50;;;;;;;;;;;;;;;;;;6218351;22;19923;-88
2022/03/10 05:07:22;;;;;;;;;;;;;;;;;;6222068;22;20316;-88
2022/03/10 05:09:55;;;;;;;;;;;;;;;;;;6245026;22;19926;-88
2022/03/10 05:12:24;;;;;;;;;;;;;;;;;;6245075;22;19926;-88
2022/03/10 05:14:50;;;;;;;;;;;;;;;;;;6220592;22;19916;-88
2022/03/10 05:17:17;;;;;;;;;;;;;;;;;;6243081;22;19923;-88
2022/03/10 05:19:45;;;;;;;;;;;;;;;;;;6218275;22;19998;-88
2022/03/10 05:22:11;;;;;;;;;;;;;;;;;;6219245;22;20339;-88
2022/03/10 05:24:37;;;;;;;;;;;;;;;;;;6220510;22;19919;-88
2022/03/10 05:27:03;;;;;;;;;;;;;;;;;;6244646;22;20364;-88
2022/03/10 05:29:40;;;;;;;;;;;;;;;;;;6244816;22;20296;-88
2022/03/10 05:32:09;;;;;;;;;;;;;;;;;;6219858;22;20347;-88
2022/03/10 05:34:35;;;;;;;;;;;;;;;;;;6242590;22;19919;-87
2022/03/10 05:37:04;;;;;;;;;;;;;;;;;;6216546;22;20338;-88
2022/03/10 05:39:30;;;;;;;;;;;;;;;;;;6242114;22;19923;-90
2022/03/10 05:41:58;;;;;;;;;;;;;;;;;;6243510;22;19919;-89
2022/03/10 05:44:27;;;;;;;;;;;;;;;;;;6242197;22;19921;-88
2022/03/10 05:46:58;;;;;;;;;;;;;;;;;;6216807;22;20363;-89
2022/03/10 05:49:24;;;;;;;;;;;;;;;;;;6241707;22;19986;-89
2022/03/10 05:51:50;;;;;;;;;;;;;;;;;;6242318;22;20397;-89
2022/03/10 05:54:16;;;;;;;;;;;;;;;;;;6216725;22;19926;-88
2022/03/10 05:56:42;;;;;;;;;;;;;;;;;;6217027;22;20218;-89
2022/03/10 05:59:08;;;;;;;;;;;;;;;;;;6241757;22;19968;-89
2022/03/10 06:01:34;;;;;;;;;;;;;;;;;;6215650;22;19919;-89
2022/03/10 06:04:06;;;;;;;;;;;;;;;;;;6240962;22;19926;-90
2022/03/10 06:06:32;;;;;;;;;;;;;;;;;;6215543;22;20328;-90
2022/03/10 06:09:00;;;;;;;;;;;;;;;;;;6215823;22;20304;-90
2022/03/10 06:11:26;;;;;;;;;;;;;;;;;;6241950;22;19919;-90
2022/03/10 06:13:53;;;;;;;;;;;;;;;;;;6215791;22;19997;-90
2022/03/10 06:16:21;;;;;;;;;;;;;;;;;;6217746;22;20287;-89
2022/03/10 06:18:50;;;;;;;;;;;;;;;;;;6216353;22;20290;-88
2022/03/10 06:21:16;;;;;;;;;;;;;;;;;;6214221;22;20382;-89
2022/03/10 06:23:42;;;;;;;;;;;;;;;;;;6239525;22;19919;-92
2022/03/10 06:26:08;;;;;;;;;;;;;;;;;;6212126;22;19991;-91
2022/03/10 06:28:36;;;;;;;;;;;;;;;;;;6211367;22;20336;-91
2022/03/10 06:31:08;;;;;;;;;;;;;;;;;;6241699;22;19919;-91
2022/03/10 06:33:37;;;;;;;;;;;;;;;;;;6242716;22;19915;-92
2022/03/10 06:36:13;;;;;;;;;;;;;;;;;;6219159;22;19930;-91
2022/03/10 06:38:39;;;;;;;;;;;;;;;;;;6217048;22;19923;-90
2022/03/10 06:41:05;;;;;;;;;;;;;;;;;;6219679;22;19923;-91
2022/03/10 06:43:31;;;;;;;;;;;;;;;;;;6220660;22;19916;-92
2022/03/10 06:46:00;;;;;;;;;;;;;;;;;;6220745;22;20599;-91
2022/03/10 06:48:26;;;;;;;;;;;;;;;;;;6245185;22;19965;-92
2022/03/10 06:50:54;;;;;;;;;;;;;;;;;;6220359;22;19919;-92
2022/03/10 06:53:20;;;;;;;;;;;;;;;;;;6221078;22;19922;-91
2022/03/10 06:55:47;;;;;;;;;;;;;;;;;;6220555;22;20011;-92
2022/03/10 06:58:15;;;;;;;;;;;;;;;;;;6245293;22;19919;-91
2022/03/10 07:00:44;;;;;;;;;;;;;;;;;;6220413;22;19922;-93
2022/03/10 07:03:10;;;;;;;;;;;;;;;;;;6220959;22;19923;-90
2022/03/10 07:05:36;;;;;;;;;;;;;;;;;;6219799;22;19919;-91
2022/03/10 07:08:02;;;;;;;;;;;;;;;;;;6219218;22;19915;-91
2022/03/10 07:10:31;;;;;;;;;;;;;;;;;;6220738;22;20287;-91
2022/03/10 07:13:05;;;;;;;;;;;;;;;;;;6221156;22;19926;-92
2022/03/10 07:15:31;;;;;;;;;;;;;;;;;;6221213;22;19986;-91
2022/03/10 07:18:05;;;;;;;;;;;;;;;;;;6245595;22;19915;-92
2022/03/10 07:20:34;;;;;;;;;;;;;;;;;;6220019;22;20585;-91
2022/03/10 07:23:00;;;;;;;;;;;;;;;;;;6220008;22;19990;-91
2022/03/10 07:25:26;;;;;;;;;;;;;;;;;;6219467;22;19916;-91
2022/03/10 07:27:52;;;;;;;;;;;;;;;;;;6219795;22;20465;-91
2022/03/10 07:30:21;;;;;;;;;;;;;;;;;;6216207;22;19974;-91
2022/03/10 07:32:47;;;;;;;;;;;;;;;;;;6220075;22;19919;-91
2022/03/10 07:35:30;;;;;;;;;;;;;;;;;;6215458;22;19926;-89
2022/03/10 07:37:59;;;;;;;;;;;;;;;;;;6214102;22;19990;-91
2022/03/10 07:40:31;;;;;;;;;;;;;;;;;;6216691;22;19919;-91
2022/03/10 07:43:00;;;;;;;;;;;;;;;;;;6216677;22;20328;-91
2022/03/10 07:45:37;;;;;;;;;;;;;;;;;;6216305;22;20507;-91
2022/03/10 07:48:06;;;;;;;;;;;;;;;;;;6216263;22;20002;-90
2022/03/10 07:50:41;;;;;;;;;;;;;;;;;;6217116;22;20243;-90
2022/03/10 07:53:08;;;;;;;;;;;;;;;;;;6217541;22;19919;-90
2022/03/10 07:55:36;;;;;;;;;;;;;;;;;;6241245;22;20351;-90
2022/03/10 07:58:02;;;;;;;;;;;;;;;;;;6242527;22;19965;-89
2022/03/10 08:00:36;;;;;;;;;;;;;;;;;;6218246;22;19958;-90
2022/03/10 08:03:02;;;;;;;;;;;;;;;;;;6243914;22;19969;-90
2022/03/10 08:05:31;;;;;;;;;;;;;;;;;;6217046;22;19946;-90
2022/03/10 08:08:01;;;;;;;;;;;;;;;;;;6217932;22;19927;-89
2022/03/10 09:01:13;;;;;;;;;;;;;;;;;;6206189;22;20343;-87
2022/03/10 09:03:41;;;;;;;;;;;;;;;;;;6191862;23;19924;-87
2022/03/10 09:06:12;;;;;;;;;;;;;;;;;;6191536;23;19982;-86
2022/03/10 09:08:59;;;;;;;;;;;;;;;;;;6126637;23;20368;-87
2022/03/10 09:11:35;;;;;;;;;;;;;;;;;;6102176;23;19916;-87
2022/03/10 09:14:02;;;;;;;;;;;;;;;;;;6100999;23;19916;-87
2022/03/10 09:16:33;;;;;;;;;;;;;;;;;;6125401;23;19995;-88
2022/03/10 09:19:00;;;;;;;;;;;;;;;;;;6126026;23;19916;-87
2022/03/10 09:21:33;;;;;;;;;;;;;;;;;;6127340;23;19920;-87
2022/03/10 09:24:04;;;;;;;;;;;;;;;;;;6101500;23;19917;-88
2022/03/10 09:26:31;;;;;;;;;;;;;;;;;;6101684;23;19920;-88
2022/03/10 09:28:58;;;;;;;;;;;;;;;;;;6101258;23;19968;-88
2022/03/10 09:31:29;;;;;;;;;;;;;;;;;;6101493;23;19948;-87
2022/03/10 09:33:59;;;;;;;;;;;;;;;;;;6125835;23;19998;-88
2022/03/10 09:36:29;;;;;;;;;;;;;;;;;;6125130;23;19936;-87
2022/03/10 09:38:56;;;;;;;;;;;;;;;;;;6125651;23;20604;-87
2022/03/10 09:41:24;;;;;;;;;;;;;;;;;;6101483;23;19916;-87
2022/03/10 09:44:10;;;;;;;;;;;;;;;;;;6095906;23;20317;-87
2022/03/10 09:46:41;;;;;;;;;;;;;;;;;;6072418;23;19920;-87
2022/03/10 09:49:09;;;;;;;;;;;;;;;;;;6096108;23;19921;-87
2022/03/10 09:51:39;;;;;;;;;;;;;;;;;;6091909;23;19920;-87
2022/03/10 09:54:06;;;;;;;;;;;;;;;;;;6154038;23;19970;-87
2022/03/10 09:56:36;;;;;;;;;;;;;;;;;;6154964;23;19986;-87
2022/03/10 09:59:04;;;;;;;;;;;;;;;;;;6179312;23;19958;-87
2022/03/10 10:01:33;;;;;;;;;;;;;;;;;;6183839;23;19931;-87
2022/03/10 10:04:00;;;;;;;;;;;;;;;;;;6184170;23;19920;-88
2022/03/10 10:06:28;;;;;;;;;;;;;;;;;;6184150;23;19924;-87
2022/03/10 10:08:58;;;;;;;;;;;;;;;;;;6184857;23;19947;-87
2022/03/10 10:11:25;;;;;;;;;;;;;;;;;;6209648;23;20035;-87
2022/03/10 10:13:53;;;;;;;;;;;;;;;;;;6209754;23;19916;-87
2022/03/10 10:16:25;;;;;;;;;;;;;;;;;;6120457;23;19925;-87
2022/03/10 10:18:52;;;;;;;;;;;;;;;;;;6071751;23;20232;-87
2022/03/10 10:21:19;;;;;;;;;;;;;;;;;;6120723;23;19987;-87
2022/03/10 10:23:46;;;;;;;;;;;;;;;;;;6096221;23;19917;-87
2022/03/10 10:26:29;;;;;;;;;;;;;;;;;;6099240;23;20365;-87
2022/03/10 10:28:57;;;;;;;;;;;;;;;;;;6095706;23;19928;-87
2022/03/10 10:31:27;;;;;;;;;;;;;;;;;;6119871;23;19921;-87
2022/03/10 10:34:12;;;;;;;;;;;;;;;;;;6139673;23;19995;-87
2022/03/10 10:36:43;;;;;;;;;;;;;;;;;;6154529;23;19946;-87
2022/03/10 10:39:21;;;;;;;;;;;;;;;;;;6141120;23;21545;-87
2022/03/10 10:41:50;;;;;;;;;;;;;;;;;;6081526;23;19916;-87
2022/03/10 10:44:17;;;;;;;;;;;;;;;;;;6130093;23;19920;-87
2022/03/10 10:46:43;;;;;;;;;;;;;;;;;;6117270;23;19946;-87
2022/03/10 10:49:10;;;;;;;;;;;;;;;;;;6184049;23;19963;-87
2022/03/10 10:51:38;;;;;;;;;;;;;;;;;;6184137;23;19920;-88
2022/03/10 10:54:04;;;;;;;;;;;;;;;;;;6119963;23;19927;-87
2022/03/10 10:56:33;;;;;;;;;;;;;;;;;;6094784;23;19964;-88
2022/03/10 10:59:09;;;;;;;;;;;;;;;;;;6094960;23;19931;-87
2022/03/10 11:01:35;;;;;;;;;;;;;;;;;;6095148;23;20345;-88
2022/03/10 11:04:06;;;;;;;;;;;;;;;;;;6094958;23;19921;-87
2022/03/10 11:06:34;;;;;;;;;;;;;;;;;;6095723;23;19921;-87
2022/03/10 11:09:04;;;;;;;;;;;;;;;;;;6095114;23;19917;-88
2022/03/10 11:11:36;;;;;;;;;;;;;;;;;;6095713;23;19923;-88
2022/03/10 11:14:09;;;;;;;;;;;;;;;;;;6095624;23;19917;-88
2022/03/10 11:16:36;;;;;;;;;;;;;;;;;;6094833;23;19956;-87
2022/03/10 11:19:27;;;;;;;;;;;;;;;;;;6062039;23;19922;-87
2022/03/10 11:21:59;;;;;;;;;;;;;;;;;;6022959;23;20647;-87
2022/03/10 11:24:26;;;;;;;;;;;;;;;;;;6074929;23;19951;-88
2022/03/10 11:26:59;;;;;;;;;;;;;;;;;;6129320;23;20392;-87
2022/03/10 11:29:27;;;;;;;;;;;;;;;;;;6152187;23;19920;-87
2022/03/10 11:31:55;;;;;;;;;;;;;;;;;;6153751;23;20338;-87
2022/03/10 11:34:23;;;;;;;;;;;;;;;;;;6153587;23;20074;-88
2022/03/10 11:36:50;;;;;;;;;;;;;;;;;;6129556;23;19927;-87
2022/03/10 11:39:29;;;;;;;;;;;;;;;;;;6153745;23;20017;-87
2022/03/10 11:42:03;;;;;;;;;;;;;;;;;;6129313;23;19920;-87
2022/03/10 11:44:31;;;;;;;;;;;;;;;;;;6153876;23;20265;-87
2022/03/10 11:47:01;;;;;;;;;;;;;;;;;;6129183;23;19979;-87
2022/03/10 11:49:32;;;;;;;;;;;;;;;;;;6160838;23;19920;-87
2022/03/10 11:52:03;;;;;;;;;;;;;;;;;;6214104;23;19920;-87
2022/03/10 11:54:32;;;;;;;;;;;;;;;;;;6215091;23;20554;-87
2022/03/10 11:57:03;;;;;;;;;;;;;;;;;;6214213;23;19962;-87
2022/03/10 11:59:46;;;;;;;;;;;;;;;;;;6177391;23;19958;-87
2022/03/10 12:02:13;;;;;;;;;;;;;;;;;;6139314;23;19924;-87
2022/03/10 12:04:59;;;;;;;;;;;;;;;;;;6186714;23;20368;-87
2022/03/10 12:07:26;;;;;;;;;;;;;;;;;;6158894;23;19916;-87
2022/03/10 12:09:57;;;;;;;;;;;;;;;;;;6182728;23;19922;-87
2022/03/10 12:12:25;;;;;;;;;;;;;;;;;;6158448;23;19920;-87
2022/03/10 12:15:01;;;;;;;;;;;;;;;;;;6207351;23;20399;-85
2022/03/10 12:17:28;;;;;;;;;;;;;;;;;;6182905;23;19930;-85
2022/03/10 12:19:55;;;;;;;;;;;;;;;;;;6157487;23;19923;-85
2022/03/10 12:22:24;;;;;;;;;;;;;;;;;;6158262;23;19920;-85
2022/03/10 12:24:51;;;;;;;;;;;;;;;;;;6183115;23;19992;-85
2022/03/10 12:27:21;;;;;;;;;;;;;;;;;;6155076;23;20030;-85
2022/03/10 12:29:48;;;;;;;;;;;;;;;;;;6165136;23;19920;-85
2022/03/10 12:32:16;;;;;;;;;;;;;;;;;;6216231;23;19947;-85
2022/03/10 12:34:44;;;;;;;;;;;;;;;;;;6216660;23;19919;-86
2022/03/10 12:37:11;;;;;;;;;;;;;;;;;;6216483;23;19927;-85
2022/03/10 12:39:38;;;;;;;;;;;;;;;;;;6216694;23;19923;-85
2022/03/10 12:42:04;;;;;;;;;;;;;;;;;;6244117;23;19919;-85
2022/03/10 12:44:34;;;;;;;;;;;;;;;;;;6217117;23;19916;-85
2022/03/10 12:47:03;;;;;;;;;;;;;;;;;;6216304;23;19938;-85
2022/03/10 12:49:30;;;;;;;;;;;;;;;;;;6216741;23;19916;-85
2022/03/10 12:52:00;;;;;;;;;;;;;;;;;;6216716;23;19919;-85
2022/03/10 12:54:29;;;;;;;;;;;;;;;;;;6216924;23;19951;-85
2022/03/10 12:57:00;;;;;;;;;;;;;;;;;;6216955;23;20321;-85
2022/03/10 12:59:28;;;;;;;;;;;;;;;;;;6216837;23;19920;-85
2022/03/10 13:01:55;;;;;;;;;;;;;;;;;;6250149;22;19919;-85
2022/03/10 13:04:25;;;;;;;;;;;;;;;;;;6222480;22;20000;-85
2022/03/10 13:06:55;;;;;;;;;;;;;;;;;;6247156;22;19915;-85
2022/03/10 13:09:23;;;;;;;;;;;;;;;;;;6221608;22;19915;-85
2022/03/10 13:11:50;;;;;;;;;;;;;;;;;;6222345;22;19915;-84
2022/03/10 13:14:20;;;;;;;;;;;;;;;;;;6222023;22;19930;-85
2022/03/10 13:16:48;;;;;;;;;;;;;;;;;;6246991;22;19927;-85
2022/03/10 13:19:18;;;;;;;;;;;;;;;;;;6221565;22;19945;-85
2022/03/10 13:21:45;;;;;;;;;;;;;;;;;;6220156;22;19927;-85
2022/03/10 13:24:12;;;;;;;;;;;;;;;;;;6221643;22;19922;-85
2022/03/10 13:26:58;;;;;;;;;;;;;;;;;;6188466;23;19927;-85
2022/03/10 13:29:25;;;;;;;;;;;;;;;;;;6159568;23;19916;-85
2022/03/10 13:32:11;;;;;;;;;;;;;;;;;;6189115;23;20447;-85
2022/03/10 13:34:39;;;;;;;;;;;;;;;;;;6184299;23;19920;-85
2022/03/10 13:37:06;;;;;;;;;;;;;;;;;;6160281;23;19924;-85
2022/03/10 13:39:42;;;;;;;;;;;;;;;;;;6208340;23;20027;-85
2022/03/10 13:42:09;;;;;;;;;;;;;;;;;;6209099;23;19916;-85
2022/03/10 13:44:37;;;;;;;;;;;;;;;;;;6184603;23;19924;-85
2022/03/10 13:47:24;;;;;;;;;;;;;;;;;;6154067;23;19920;-84
2022/03/10 13:49:54;;;;;;;;;;;;;;;;;;6151920;23;19962;-85
2022/03/10 13:52:23;;;;;;;;;;;;;;;;;;6151301;23;19916;-85
2022/03/10 13:54:50;;;;;;;;;;;;;;;;;;6151732;23;19920;-85
2022/03/10 13:57:18;;;;;;;;;;;;;;;;;;6142906;23;19958;-85
2022/03/10 14:00:03;;;;;;;;;;;;;;;;;;6157029;23;19917;-85
2022/03/10 14:02:32;;;;;;;;;;;;;;;;;;6175430;23;19931;-85
2022/03/10 14:05:03;;;;;;;;;;;;;;;;;;6150264;23;19946;-85
2022/03/10 14:07:30;;;;;;;;;;;;;;;;;;6151568;23;19975;-85
2022/03/10 14:09:56;;;;;;;;;;;;;;;;;;6175867;23;19924;-85
2022/03/10 14:12:40;;;;;;;;;;;;;;;;;;6176452;23;20337;-85
2022/03/10 14:15:06;;;;;;;;;;;;;;;;;;6175569;23;19924;-85
2022/03/10 14:17:40;;;;;;;;;;;;;;;;;;6151964;23;20241;-85
2022/03/10 14:20:06;;;;;;;;;;;;;;;;;;6150908;23;19945;-85
2022/03/10 14:22:33;;;;;;;;;;;;;;;;;;6150110;23;19920;-85
2022/03/10 14:25:00;;;;;;;;;;;;;;;;;;6150449;23;19923;-85
2022/03/10 14:27:27;;;;;;;;;;;;;;;;;;6150943;23;20349;-85
2022/03/10 14:29:59;;;;;;;;;;;;;;;;;;6151912;23;19916;-84
2022/03/10 14:32:29;;;;;;;;;;;;;;;;;;6181306;23;20628;-85
2022/03/10 14:34:57;;;;;;;;;;;;;;;;;;6181382;23;20327;-85
2022/03/10 14:37:24;;;;;;;;;;;;;;;;;;6180685;23;19931;-85
2022/03/10 14:39:51;;;;;;;;;;;;;;;;;;6180646;23;19916;-85
2022/03/10 14:42:18;;;;;;;;;;;;;;;;;;6182944;23;20321;-85
2022/03/10 14:44:46;;;;;;;;;;;;;;;;;;6238917;22;19919;-85
2022/03/10 14:47:13;;;;;;;;;;;;;;;;;;6242495;22;19982;-85
2022/03/10 14:49:40;;;;;;;;;;;;;;;;;;6244169;22;19930;-85
2022/03/10 14:52:10;;;;;;;;;;;;;;;;;;6242050;22;19923;-85
2022/03/10 14:54:37;;;;;;;;;;;;;;;;;;6242314;22;19919;-85
2022/03/10 14:57:04;;;;;;;;;;;;;;;;;;6242958;22;19925;-85
2022/03/10 14:59:30;;;;;;;;;;;;;;;;;;6242556;22;19961;-85
2022/03/10 15:02:00;;;;;;;;;;;;;;;;;;6269263;22;19920;-85
2022/03/10 15:04:42;;;;;;;;;;;;;;;;;;6273481;22;20432;-85
2022/03/10 15:07:09;;;;;;;;;;;;;;;;;;6245856;22;19950;-85
2022/03/10 15:09:36;;;;;;;;;;;;;;;;;;6246222;22;19915;-85
2022/03/10 15:12:22;;;;;;;;;;;;;;;;;;6250096;22;20402;-85
2022/03/10 15:14:50;;;;;;;;;;;;;;;;;;6221027;22;19926;-85
2022/03/10 15:17:17;;;;;;;;;;;;;;;;;;6245716;22;19974;-85
2022/03/10 15:19:44;;;;;;;;;;;;;;;;;;6246035;22;19969;-85
2022/03/10 15:22:12;;;;;;;;;;;;;;;;;;6219816;22;20000;-85
2022/03/10 15:24:39;;;;;;;;;;;;;;;;;;6245046;22;19950;-85
2022/03/10 15:27:06;;;;;;;;;;;;;;;;;;6221381;22;20283;-85
2022/03/10 15:29:48;;;;;;;;;;;;;;;;;;6249737;22;19922;-85
2022/03/10 15:32:16;;;;;;;;;;;;;;;;;;6245445;22;20324;-85
2022/03/10 15:34:43;;;;;;;;;;;;;;;;;;6245193;22;19958;-85
2022/03/10 15:37:09;;;;;;;;;;;;;;;;;;6215017;22;20690;-84
2022/03/10 15:39:36;;;;;;;;;;;;;;;;;;6243352;22;19919;-85
2022/03/10 15:42:03;;;;;;;;;;;;;;;;;;6269249;22;19926;-85
2022/03/10 15:44:30;;;;;;;;;;;;;;;;;;6217856;22;19919;-84
2022/03/10 15:46:58;;;;;;;;;;;;;;;;;;6217688;22;20273;-84
2022/03/10 15:49:25;;;;;;;;;;;;;;;;;;6243484;22;19990;-84
2022/03/10 15:51:52;;;;;;;;;;;;;;;;;;6219543;22;20252;-84
2022/03/10 15:54:20;;;;;;;;;;;;;;;;;;6243299;22;20283;-84
2022/03/10 15:56:48;;;;;;;;;;;;;;;;;;6244723;22;20182;-84
2022/03/10 15:59:30;;;;;;;;;;;;;;;;;;6269941;22;19925;-83
2022/03/10 16:01:57;;;;;;;;;;;;;;;;;;6243589;22;19947;-84
2022/03/10 16:04:26;;;;;;;;;;;;;;;;;;6243895;22;20270;-85
2022/03/10 16:06:59;;;;;;;;;;;;;;;;;;6272161;22;19964;-85
2022/03/10 16:09:40;;;;;;;;;;;;;;;;;;6208179;23;19924;-84
2022/03/10 16:12:07;;;;;;;;;;;;;;;;;;6184177;23;20230;-84
2022/03/10 16:14:34;;;;;;;;;;;;;;;;;;6185965;23;19916;-84
2022/03/10 16:17:02;;;;;;;;;;;;;;;;;;6156903;23;19920;-85
2022/03/10 16:19:30;;;;;;;;;;;;;;;;;;6206411;23;19959;-84
2022/03/10 16:21:58;;;;;;;;;;;;;;;;;;6157714;23;19995;-84
2022/03/10 16:24:25;;;;;;;;;;;;;;;;;;6154674;23;19920;-84
2022/03/10 16:27:10;;;;;;;;;;;;;;;;;;6180978;23;19927;-85
2022/03/10 16:29:41;;;;;;;;;;;;;;;;;;6178128;23;19924;-84
2022/03/10 16:32:17;;;;;;;;;;;;;;;;;;6178411;23;20257;-84
2022/03/10 16:34:45;;;;;;;;;;;;;;;;;;6151948;23;19923;-84
2022/03/10 16:37:12;;;;;;;;;;;;;;;;;;6177565;23;19920;-84
2022/03/10 16:39:38;;;;;;;;;;;;;;;;;;6180634;22;20408;-85
2022/03/10 16:42:04;;;;;;;;;;;;;;;;;;6213368;22;19953;-85
2022/03/10 16:44:30;;;;;;;;;;;;;;;;;;6213765;22;19923;-85
2022/03/10 16:47:03;;;;;;;;;;;;;;;;;;6242176;22;19956;-85
2022/03/10 16:49:30;;;;;;;;;;;;;;;;;;6241796;22;19994;-85
2022/03/10 16:51:57;;;;;;;;;;;;;;;;;;6240594;22;20725;-85
2022/03/10 16:54:23;;;;;;;;;;;;;;;;;;6240300;22;19966;-85
2022/03/10 16:56:49;;;;;;;;;;;;;;;;;;6149723;23;19920;-85
2022/03/10 16:59:18;;;;;;;;;;;;;;;;;;6149811;23;19927;-86
2022/03/10 17:01:45;;;;;;;;;;;;;;;;;;6150570;23;19927;-85
2022/03/10 17:04:27;;;;;;;;;;;;;;;;;;6145900;23;19931;-85
2022/03/10 17:06:54;;;;;;;;;;;;;;;;;;6142753;23;20360;-84
2022/03/10 17:09:22;;;;;;;;;;;;;;;;;;6144986;23;19917;-84
2022/03/10 17:11:49;;;;;;;;;;;;;;;;;;6119986;23;20003;-84
2022/03/10 17:14:15;;;;;;;;;;;;;;;;;;6144212;23;19952;-84
2022/03/10 17:16:43;;;;;;;;;;;;;;;;;;6120124;23;20003;-84
2022/03/10 17:19:10;;;;;;;;;;;;;;;;;;6119248;23;19917;-84
2022/03/10 17:21:38;;;;;;;;;;;;;;;;;;6119548;23;19921;-84
2022/03/10 17:24:06;;;;;;;;;;;;;;;;;;6118120;23;20003;-84
2022/03/10 17:26:35;;;;;;;;;;;;;;;;;;6143550;23;19966;-84
2022/03/10 17:29:05;;;;;;;;;;;;;;;;;;6212205;23;20321;-84
2022/03/10 17:31:32;;;;;;;;;;;;;;;;;;6179496;23;20301;-84
2022/03/10 17:34:00;;;;;;;;;;;;;;;;;;6185309;23;19920;-84
2022/03/10 17:36:51;;;;;;;;;;;;;;;;;;6115005;23;19921;-84
2022/03/10 17:39:26;;;;;;;;;;;;;;;;;;6090679;23;19952;-84
2022/03/10 17:41:55;;;;;;;;;;;;;;;;;;6088521;23;19920;-84
2022/03/10 17:44:23;;;;;;;;;;;;;;;;;;6090540;23;19921;-84
2022/03/10 17:46:52;;;;;;;;;;;;;;;;;;6089868;23;20017;-85
2022/03/10 17:49:28;;;;;;;;;;;;;;;;;;6090909;23;19927;-84
2022/03/10 17:52:01;;;;;;;;;;;;;;;;;;6066394;23;19921;-85
2022/03/10 17:54:30;;;;;;;;;;;;;;;;;;6089755;23;19995;-83
2022/03/10 17:57:01;;;;;;;;;;;;;;;;;;6090503;23;20004;-84